createdAt,value
2023-03-20T00:00:34.928Z,5.30
2023-03-20T00:03:03.751Z,5.30
2023-03-20T00:05:33.499Z,5.30
2023-03-20T00:08:03.283Z,5.10
2023-03-20T00:10:37.129Z,5.00
2023-03-20T00:13:06.470Z,5.00
2023-03-20T00:15:38.582Z,5.00
2023-03-20T00:18:15.569Z,5.00
2023-03-20T00:20:43.677Z,5.00
2023-03-20T00:23:13.424Z,5.00
2023-03-20T00:25:43.249Z,5.00
2023-03-20T00:28:39.072Z,5.00
2023-03-20T00:31:15.325Z,5.00
2023-03-20T00:33:43.478Z,4.80
2023-03-20T00:36:11.930Z,4.70
2023-03-20T00:38:41.481Z,4.70
2023-03-20T00:41:22.644Z,4.70
2023-03-20T00:43:53.416Z,4.60
2023-03-20T00:46:21.912Z,4.70
2023-03-20T00:48:50.776Z,4.50
2023-03-20T00:51:19.175Z,4.50
2023-03-20T00:53:48.758Z,4.40
2023-03-20T00:56:32.713Z,4.50
2023-03-20T00:59:02.618Z,4.50
2023-03-20T01:01:32.143Z,4.50
2023-03-20T01:04:00.954Z,4.30
2023-03-20T01:06:31.434Z,4.20
2023-03-20T01:09:01.017Z,4.30
2023-03-20T01:11:29.275Z,4.40
2023-03-20T01:13:57.440Z,4.40
2023-03-20T01:16:27.212Z,4.50
2023-03-20T01:18:55.761Z,4.40
2023-03-20T01:21:24.540Z,4.20
2023-03-20T01:23:52.688Z,4.20
2023-03-20T01:26:28.309Z,4.30
2023-03-20T01:28:56.797Z,4.20
2023-03-20T01:31:25.052Z,4.00
2023-03-20T01:33:53.213Z,3.90
2023-03-20T01:36:23.773Z,3.90
2023-03-20T01:38:56.689Z,3.80
2023-03-20T01:41:28.375Z,3.80
2023-03-20T01:43:57.083Z,3.90
2023-03-20T01:46:28.491Z,3.80
2023-03-20T01:49:09.633Z,3.90
2023-03-20T01:51:37.823Z,3.90
2023-03-20T01:54:10.046Z,4.00
2023-03-20T01:56:42.860Z,3.90
2023-03-20T01:59:14.603Z,4.00
2023-03-20T02:01:43.946Z,3.90
2023-03-20T02:04:13.932Z,3.90
2023-03-20T02:06:44.995Z,3.90
2023-03-20T02:09:13.660Z,3.90
2023-03-20T02:11:44.700Z,3.90
2023-03-20T02:14:14.668Z,3.90
2023-03-20T02:16:42.897Z,3.80
2023-03-20T02:19:18.814Z,3.70
2023-03-20T02:22:16.194Z,3.70
2023-03-20T02:25:31.712Z,3.70
2023-03-20T02:28:44.114Z,3.70
2023-03-20T02:31:47.787Z,3.60
2023-03-20T02:34:45.770Z,3.60
2023-03-20T02:37:41.553Z,3.50
2023-03-20T02:40:22.822Z,3.60
2023-03-20T02:42:58.914Z,3.50
2023-03-20T02:45:30.634Z,3.60
2023-03-20T02:48:10.207Z,3.50
2023-03-20T02:50:46.062Z,3.50
2023-03-20T02:53:26.155Z,3.40
2023-03-20T02:56:01.831Z,3.40
2023-03-20T02:58:37.688Z,3.40
2023-03-20T03:01:12.124Z,3.40
2023-03-20T03:03:47.170Z,3.50
2023-03-20T03:06:23.075Z,3.50
2023-03-20T03:08:57.540Z,3.50
2023-03-20T03:11:25.753Z,3.50
2023-03-20T03:13:57.467Z,3.60
2023-03-20T03:16:30.047Z,3.40
2023-03-20T03:19:07.877Z,3.40
2023-03-20T03:21:38.398Z,3.50
2023-03-20T03:24:21.759Z,3.40
2023-03-20T03:26:54.976Z,3.40
2023-03-20T03:29:26.498Z,3.50
2023-03-20T03:31:55.135Z,3.50
2023-03-20T03:34:24.591Z,3.50
2023-03-20T03:37:01.060Z,3.50
2023-03-20T03:39:38.321Z,3.30
2023-03-20T03:42:13.351Z,3.30
2023-03-20T03:44:49.300Z,3.30
2023-03-20T03:47:21.582Z,3.40
2023-03-20T03:49:55.798Z,3.20
2023-03-20T03:52:25.929Z,3.20
2023-03-20T03:54:58.050Z,2.30
2023-03-20T03:57:32.435Z,3.10
2023-03-20T04:00:03.250Z,3.20
2023-03-20T04:02:32.007Z,3.10
2023-03-20T04:05:02.862Z,3.20
2023-03-20T04:07:31.057Z,3.20
2023-03-20T04:10:00.573Z,3.20
2023-03-20T04:12:39.771Z,3.20
2023-03-20T04:15:09.065Z,3.20
2023-03-20T04:17:37.312Z,3.20
2023-03-20T04:20:06.897Z,3.20
2023-03-20T04:22:35.111Z,3.20
2023-03-20T04:25:06.167Z,3.20
2023-03-20T04:27:34.286Z,3.20
2023-03-20T04:30:02.487Z,3.20
2023-03-20T04:32:30.616Z,3.20
2023-03-20T04:34:58.729Z,3.20
2023-03-20T04:37:26.879Z,3.20
2023-03-20T04:39:55.060Z,3.10
2023-03-20T04:42:24.591Z,3.20
2023-03-20T04:44:52.728Z,3.10
2023-03-20T04:47:20.863Z,3.10
2023-03-20T04:49:48.973Z,2.90
2023-03-20T04:52:17.190Z,2.90
2023-03-20T04:54:45.338Z,2.80
2023-03-20T04:57:13.495Z,2.90
2023-03-20T04:59:43.225Z,3.00
2023-03-20T05:02:14.946Z,3.00
2023-03-20T05:04:43.739Z,3.10
2023-03-20T05:07:11.979Z,3.00
2023-03-20T05:09:40.319Z,2.90
2023-03-20T05:12:10.130Z,2.90
2023-03-20T05:14:38.271Z,2.90
2023-03-20T05:17:07.809Z,3.00
2023-03-20T05:19:36.801Z,3.10
2023-03-20T05:22:07.340Z,3.00
2023-03-20T05:24:35.542Z,3.00
2023-03-20T05:27:03.788Z,3.10
2023-03-20T05:29:32.225Z,3.10
2023-03-20T05:32:00.399Z,3.10
2023-03-20T05:34:29.939Z,3.20
2023-03-20T05:36:58.142Z,3.30
2023-03-20T05:39:26.358Z,3.30
2023-03-20T05:41:54.532Z,3.40
2023-03-20T05:44:22.697Z,3.50
2023-03-20T05:46:50.921Z,3.60
2023-03-20T05:49:19.061Z,3.60
2023-03-20T05:51:48.643Z,3.70
2023-03-20T05:54:17.572Z,3.70
2023-03-20T05:56:46.722Z,3.80
2023-03-20T05:59:15.110Z,3.90
2023-03-20T06:01:43.240Z,4.00
2023-03-20T06:04:11.362Z,3.90
2023-03-20T06:06:39.515Z,3.90
2023-03-20T06:09:09.049Z,3.90
2023-03-20T06:11:37.785Z,3.90
2023-03-20T06:14:06.006Z,3.80
2023-03-20T06:16:34.167Z,3.80
2023-03-20T06:19:02.384Z,3.80
2023-03-20T06:21:30.621Z,3.90
2023-03-20T06:24:00.040Z,4.00
2023-03-20T06:26:29.663Z,4.10
2023-03-20T06:28:57.898Z,4.20
2023-03-20T06:31:26.225Z,4.20
2023-03-20T06:33:54.448Z,4.20
2023-03-20T06:36:22.591Z,4.30
2023-03-20T06:38:50.820Z,4.30
2023-03-20T06:41:33.414Z,4.40
2023-03-20T06:44:04.476Z,4.50
2023-03-20T06:46:32.707Z,4.50
2023-03-20T06:49:01.382Z,4.50
2023-03-20T06:51:29.576Z,4.60
2023-03-20T06:53:57.777Z,4.70
2023-03-20T06:56:26.238Z,4.80
2023-03-20T06:58:54.388Z,4.90
2023-03-20T07:01:24.486Z,4.90
2023-03-20T07:03:52.640Z,5.00
2023-03-20T07:06:21.525Z,5.10
2023-03-20T07:08:49.801Z,5.10
2023-03-20T07:11:18.629Z,5.20
2023-03-20T07:13:49.701Z,5.30
2023-03-20T07:16:18.053Z,5.30
2023-03-20T07:18:47.937Z,5.40
2023-03-20T07:21:20.139Z,5.60
2023-03-20T07:23:48.282Z,5.70
2023-03-20T07:26:17.027Z,5.80
2023-03-20T07:28:45.192Z,5.90
2023-03-20T07:31:22.015Z,6.10
2023-03-20T07:33:51.696Z,6.20
2023-03-20T07:36:20.005Z,6.30
2023-03-20T07:38:49.095Z,6.50
2023-03-20T07:41:17.264Z,6.70
2023-03-20T07:43:45.663Z,6.90
2023-03-20T07:46:13.880Z,7.00
2023-03-20T07:48:42.129Z,7.30
2023-03-20T07:51:11.641Z,7.40
2023-03-20T07:53:39.755Z,7.60
2023-03-20T07:56:08.782Z,7.80
2023-03-20T07:58:37.299Z,8.00
2023-03-20T08:01:05.823Z,8.10
2023-03-20T08:03:34.152Z,8.30
2023-03-20T08:06:04.232Z,8.50
2023-03-20T08:08:33.823Z,8.70
2023-03-20T08:11:02.000Z,8.90
2023-03-20T08:13:30.148Z,9.10
2023-03-20T08:15:58.506Z,9.10
2023-03-20T08:18:26.732Z,9.20
2023-03-20T08:20:54.891Z,9.30
2023-03-20T08:23:23.285Z,9.40
2023-03-20T08:25:54.267Z,9.50
2023-03-20T08:28:30.816Z,9.80
2023-03-20T08:31:10.010Z,9.90
2023-03-20T08:33:38.372Z,10.10
2023-03-20T08:36:07.283Z,10.20
2023-03-20T08:38:35.936Z,10.50
2023-03-20T08:41:07.247Z,10.60
2023-03-20T08:43:36.410Z,10.70
2023-03-20T08:46:05.214Z,10.80
2023-03-20T08:48:33.469Z,10.90
2023-03-20T08:51:01.909Z,11.10
2023-03-20T08:53:30.051Z,11.30
2023-03-20T08:55:58.182Z,11.40
2023-03-20T08:58:27.723Z,11.50
2023-03-20T09:00:56.128Z,11.50
2023-03-20T09:03:24.279Z,11.70
2023-03-20T09:05:53.318Z,11.80
2023-03-20T09:08:21.492Z,11.70
2023-03-20T09:10:52.211Z,11.80
2023-03-20T09:13:27.582Z,11.90
2023-03-20T09:15:58.245Z,12.10
2023-03-20T09:18:26.710Z,12.00
2023-03-20T09:20:56.496Z,12.10
2023-03-20T09:23:25.022Z,12.10
2023-03-20T09:25:53.171Z,12.20
2023-03-20T09:28:21.309Z,12.20
2023-03-20T09:30:49.447Z,12.10
2023-03-20T09:33:19.363Z,12.30
2023-03-20T09:35:48.692Z,12.50
2023-03-20T09:38:16.942Z,12.70
2023-03-20T09:40:56.979Z,12.90
2023-03-20T09:43:36.073Z,13.00
2023-03-20T09:46:16.108Z,13.20
2023-03-20T09:48:54.292Z,13.20
2023-03-20T09:51:29.331Z,13.00
2023-03-20T09:54:02.495Z,13.00
2023-03-20T09:56:32.211Z,13.10
2023-03-20T09:59:03.380Z,13.10
2023-03-20T10:01:39.591Z,13.20
2023-03-20T10:04:13.087Z,13.10
2023-03-20T10:06:41.555Z,13.00
2023-03-20T10:09:17.980Z,13.10
2023-03-20T10:12:09.315Z,13.30
2023-03-20T10:14:48.217Z,13.20
2023-03-20T10:17:30.039Z,13.30
2023-03-20T10:20:05.311Z,13.50
2023-03-20T10:22:36.803Z,13.80
2023-03-20T10:25:08.883Z,13.70
2023-03-20T10:27:41.894Z,13.60
2023-03-20T10:30:32.639Z,13.60
2023-03-20T10:33:13.678Z,13.70
2023-03-20T10:35:53.037Z,13.80
2023-03-20T10:38:32.840Z,13.80
2023-03-20T10:41:01.140Z,13.60
2023-03-20T10:43:32.984Z,13.70
2023-03-20T10:46:05.309Z,13.90
2023-03-20T10:48:38.352Z,13.70
2023-03-20T10:51:14.651Z,13.60
2023-03-20T10:53:47.839Z,13.60
2023-03-20T10:56:30.208Z,13.80
2023-03-20T10:59:02.475Z,13.60
2023-03-20T11:01:30.712Z,13.80
2023-03-20T11:03:59.355Z,13.70
2023-03-20T11:06:32.342Z,14.00
2023-03-20T11:09:13.289Z,13.90
2023-03-20T11:11:44.396Z,13.90
2023-03-20T11:14:18.805Z,13.90
2023-03-20T11:16:49.869Z,13.90
2023-03-20T11:19:20.151Z,13.60
2023-03-20T11:21:52.220Z,13.70
2023-03-20T11:24:34.656Z,13.70
2023-03-20T11:27:08.269Z,13.60
2023-03-20T11:29:37.170Z,13.60
2023-03-20T11:32:08.643Z,13.50
2023-03-20T11:34:41.092Z,13.50
2023-03-20T11:37:24.327Z,13.40
2023-03-20T11:39:59.317Z,13.40
2023-03-20T11:42:29.284Z,13.30
2023-03-20T11:45:03.055Z,13.30
2023-03-20T11:47:35.129Z,13.40
2023-03-20T11:50:05.647Z,13.50
2023-03-20T11:52:38.371Z,13.60
2023-03-20T11:55:21.305Z,13.70
2023-03-20T11:57:50.870Z,13.80
2023-03-20T12:00:22.501Z,14.10
2023-03-20T12:02:51.287Z,14.30
2023-03-20T12:05:28.299Z,14.40
2023-03-20T12:08:00.437Z,14.50
2023-03-20T12:10:33.986Z,14.80
2023-03-20T12:13:06.689Z,14.50
2023-03-20T12:15:37.982Z,14.60
2023-03-20T12:18:15.678Z,14.60
2023-03-20T12:20:51.583Z,14.50
2023-03-20T12:23:32.361Z,14.60
2023-03-20T12:26:04.782Z,14.70
2023-03-20T12:28:39.597Z,14.50
2023-03-20T12:31:18.807Z,14.40
2023-03-20T12:33:53.687Z,14.20
2023-03-20T12:36:31.234Z,14.30
2023-03-20T12:39:02.781Z,14.40
2023-03-20T12:41:38.110Z,14.30
2023-03-20T12:44:30.196Z,14.30
2023-03-20T12:47:09.796Z,14.40
2023-03-20T12:49:47.519Z,14.40
2023-03-20T12:52:27.865Z,14.30
2023-03-20T12:55:30.344Z,14.30
2023-03-20T12:58:19.934Z,14.20
2023-03-20T13:00:55.461Z,14.30
2023-03-20T13:03:36.171Z,14.30
2023-03-20T13:06:11.273Z,14.30
2023-03-20T13:09:06.366Z,14.30
2023-03-20T13:11:59.872Z,14.30
2023-03-20T13:14:36.356Z,14.20
2023-03-20T13:17:11.738Z,14.20
2023-03-20T13:19:47.612Z,14.00
2023-03-20T13:22:21.820Z,14.10
2023-03-20T13:24:54.845Z,13.80
2023-03-20T13:27:33.590Z,13.70
2023-03-20T13:30:08.509Z,13.70
2023-03-20T13:32:47.282Z,13.60
2023-03-20T13:35:26.531Z,13.60
2023-03-20T13:37:57.342Z,13.60
2023-03-20T13:40:28.344Z,13.50
2023-03-20T13:43:02.407Z,13.50
2023-03-20T13:45:35.405Z,13.50
2023-03-20T13:48:13.486Z,13.50
2023-03-20T13:50:48.201Z,13.40
2023-03-20T13:53:26.748Z,13.20
2023-03-20T13:56:04.375Z,13.10
2023-03-20T13:59:02.984Z,12.90
2023-03-20T14:01:41.960Z,12.80
2023-03-20T14:04:18.108Z,12.50
2023-03-20T14:06:57.039Z,12.30
2023-03-20T14:09:31.554Z,12.30
2023-03-20T14:12:07.530Z,12.20
2023-03-20T14:14:44.405Z,12.10
2023-03-20T14:17:19.108Z,12.10
2023-03-20T14:19:48.925Z,12.10
2023-03-20T14:22:20.050Z,12.00
2023-03-20T14:24:55.320Z,11.80
2023-03-20T14:27:42.926Z,11.70
2023-03-20T14:30:42.983Z,11.70
2023-03-20T14:33:31.183Z,11.60
2023-03-20T14:36:31.115Z,11.60
2023-03-20T14:39:08.236Z,11.50
2023-03-20T14:41:49.694Z,11.60
2023-03-20T14:44:37.131Z,11.60
2023-03-20T14:47:17.992Z,11.50
2023-03-20T14:49:55.542Z,11.50
2023-03-20T14:52:37.203Z,11.50
2023-03-20T14:55:31.566Z,11.50
2023-03-20T14:58:03.885Z,11.40
2023-03-20T15:00:37.378Z,11.40
2023-03-20T15:03:14.867Z,11.40
2023-03-20T15:05:43.450Z,11.30
2023-03-20T15:08:16.945Z,11.30
2023-03-20T15:10:50.300Z,11.30
2023-03-20T15:13:19.095Z,11.30
2023-03-20T15:15:56.087Z,11.30
2023-03-20T15:18:28.525Z,11.30
2023-03-20T15:20:57.518Z,11.30
2023-03-20T15:23:28.180Z,11.10
2023-03-20T15:25:56.497Z,11.00
2023-03-20T15:28:26.509Z,10.70
2023-03-20T15:30:58.074Z,10.10
2023-03-20T15:33:30.320Z,10.50
2023-03-20T15:35:58.840Z,10.40
2023-03-20T15:38:32.895Z,10.40
2023-03-20T15:41:01.162Z,10.40
2023-03-20T15:43:29.612Z,10.40
2023-03-20T15:46:16.789Z,10.40
2023-03-20T15:48:50.926Z,10.40
2023-03-20T15:51:22.608Z,10.80
2023-03-20T15:53:50.978Z,10.70
2023-03-20T15:56:21.138Z,10.60
2023-03-20T15:58:53.041Z,10.50
2023-03-20T16:01:23.110Z,10.80
2023-03-20T16:03:53.672Z,11.10
2023-03-20T16:06:23.110Z,11.10
2023-03-20T16:09:02.061Z,11.00
2023-03-20T16:11:39.398Z,11.00
2023-03-20T16:14:09.099Z,11.00
2023-03-20T16:16:38.176Z,10.90
2023-03-20T16:19:08.952Z,10.80
2023-03-20T16:21:40.783Z,10.80
2023-03-20T16:24:11.568Z,10.70
2023-03-20T16:26:43.841Z,10.50
2023-03-20T16:29:15.925Z,10.40
2023-03-20T16:31:53.682Z,10.30
2023-03-20T16:34:26.635Z,10.30
2023-03-20T16:36:57.728Z,10.20
2023-03-20T16:39:28.909Z,10.10
2023-03-20T16:42:23.633Z,10.00
2023-03-20T16:44:56.772Z,10.00
2023-03-20T16:47:26.346Z,9.90
2023-03-20T16:50:18.778Z,9.80
2023-03-20T16:52:51.646Z,9.70
2023-03-20T16:55:24.808Z,9.60
2023-03-20T16:57:57.289Z,9.50
2023-03-20T17:00:29.112Z,9.50
2023-03-20T17:03:15.135Z,9.50
2023-03-20T17:05:57.048Z,9.40
2023-03-20T17:08:31.576Z,9.40
2023-03-20T17:11:04.193Z,9.30
2023-03-20T17:13:32.402Z,9.30
2023-03-20T17:16:01.167Z,9.20
2023-03-20T17:18:30.993Z,9.30
2023-03-20T17:21:00.634Z,9.20
2023-03-20T17:23:29.031Z,9.20
2023-03-20T17:25:57.494Z,9.10
2023-03-20T17:28:32.979Z,9.10
2023-03-20T17:31:05.170Z,9.10
2023-03-20T17:33:34.163Z,9.00
2023-03-20T17:36:03.852Z,9.00
2023-03-20T17:38:32.473Z,9.00
2023-03-20T17:41:00.672Z,9.00
2023-03-20T17:43:29.073Z,8.90
2023-03-20T17:45:57.330Z,8.90
2023-03-20T17:48:26.951Z,8.90
2023-03-20T17:50:55.267Z,8.90
2023-03-20T17:53:28.934Z,8.80
2023-03-20T17:55:57.338Z,8.80
2023-03-20T17:58:25.597Z,8.80
2023-03-20T18:00:55.658Z,8.80
2023-03-20T18:03:23.888Z,8.70
2023-03-20T18:05:53.014Z,8.70
2023-03-20T18:08:23.232Z,8.70
2023-03-20T18:10:54.382Z,8.70
2023-03-20T18:13:24.349Z,8.60
2023-03-20T18:15:53.803Z,8.60
2023-03-20T18:18:23.964Z,8.50
2023-03-20T18:20:54.845Z,8.50
2023-03-20T18:23:23.130Z,8.50
2023-03-20T18:25:52.753Z,8.50
2023-03-20T18:28:23.220Z,8.50
2023-03-20T18:30:52.086Z,8.50
2023-03-20T18:33:25.287Z,8.50
2023-03-20T18:35:53.657Z,8.50
2023-03-20T18:38:24.526Z,8.50
2023-03-20T18:40:54.239Z,8.50
2023-03-20T18:43:22.465Z,8.40
2023-03-20T18:45:50.769Z,8.50
2023-03-20T18:48:18.969Z,8.50
2023-03-20T18:50:50.922Z,8.40
2023-03-20T18:53:19.679Z,8.40
2023-03-20T18:55:47.992Z,8.40
2023-03-20T18:58:22.256Z,8.40
2023-03-20T19:00:50.756Z,8.30
2023-03-20T19:03:23.654Z,8.30
2023-03-20T19:05:52.563Z,8.30
2023-03-20T19:08:20.875Z,8.20
2023-03-20T19:10:49.846Z,8.30
2023-03-20T19:13:21.432Z,8.30
2023-03-20T19:15:49.662Z,8.30
2023-03-20T19:18:19.571Z,8.30
2023-03-20T19:20:49.698Z,8.30
2023-03-20T19:23:19.663Z,8.30
2023-03-20T19:25:49.795Z,8.30
2023-03-20T19:28:34.605Z,8.30
2023-03-20T19:31:06.724Z,8.30
2023-03-20T19:33:35.141Z,8.30
2023-03-20T19:36:04.525Z,8.20
2023-03-20T19:38:33.770Z,8.30
2023-03-20T19:41:03.779Z,8.30
2023-03-20T19:43:33.410Z,8.30
2023-03-20T19:46:01.651Z,8.30
2023-03-20T19:48:46.870Z,8.90
2023-03-20T19:51:19.720Z,8.60
2023-03-20T19:53:48.545Z,8.80
2023-03-20T19:56:20.662Z,8.80
2023-03-20T19:58:50.959Z,8.90
2023-03-20T20:01:21.262Z,8.80
2023-03-20T20:03:50.886Z,8.80
2023-03-20T20:06:22.240Z,8.80
2023-03-20T20:08:51.109Z,8.70
2023-03-20T20:11:20.088Z,8.70
2023-03-20T20:14:08.105Z,8.70
2023-03-20T20:16:37.626Z,8.70
2023-03-20T20:19:05.977Z,8.70
2023-03-20T20:24:22.907Z,8.60
2023-03-20T20:27:07.305Z,8.70
2023-03-20T20:29:41.791Z,8.70
2023-03-20T20:32:10.052Z,8.70
2023-03-20T20:40:19.524Z,8.70
2023-03-20T20:42:51.418Z,8.70
2023-03-20T20:45:22.706Z,8.60
2023-03-20T20:47:52.372Z,8.70
2023-03-20T20:50:23.391Z,8.80
2023-03-20T20:52:52.107Z,8.90
2023-03-20T20:55:23.689Z,8.90
2023-03-20T20:57:53.576Z,8.90
2023-03-20T21:00:37.144Z,8.90
2023-03-20T21:03:09.966Z,9.00
2023-03-20T21:05:41.354Z,9.00
2023-03-20T21:08:09.499Z,9.00
2023-03-20T21:10:37.713Z,9.00
2023-03-20T21:13:05.887Z,9.00
2023-03-20T21:15:35.756Z,9.00
2023-03-20T21:18:04.229Z,9.00
2023-03-20T21:20:33.401Z,9.00
2023-03-20T21:23:02.304Z,9.00
2023-03-20T21:25:47.850Z,8.90
2023-03-20T21:28:16.581Z,8.90
2023-03-20T21:31:12.460Z,8.90
2023-03-20T21:33:36.107Z,8.90
2023-03-20T21:36:04.774Z,8.90
2023-03-20T21:41:22.818Z,8.90
2023-03-20T21:43:51.218Z,8.90
2023-03-20T22:03:28.982Z,8.80
2023-03-20T22:12:46.398Z,8.70
2023-03-20T22:23:44.665Z,8.60
2023-03-20T22:32:25.096Z,8.60
2023-03-20T22:35:03.063Z,8.50
2023-03-20T22:43:05.169Z,8.00
2023-03-20T22:46:47.215Z,8.50
2023-03-20T22:49:16.075Z,8.60
2023-03-20T22:52:04.664Z,8.50
2023-03-20T22:54:34.024Z,8.50
2023-03-20T22:57:02.339Z,8.50
2023-03-20T22:59:30.753Z,8.50
2023-03-20T23:01:58.978Z,8.50
2023-03-20T23:04:29.600Z,8.50
2023-03-20T23:06:58.245Z,8.50
2023-03-20T23:09:26.469Z,8.50
2023-03-20T23:11:56.278Z,8.40
2023-03-20T23:14:24.951Z,8.50
2023-03-20T23:16:54.743Z,8.40
2023-03-20T23:19:23.070Z,8.40
2023-03-20T23:21:51.361Z,8.40
2023-03-20T23:24:19.517Z,8.40
2023-03-20T23:26:47.728Z,8.40
2023-03-20T23:29:17.356Z,8.40
2023-03-20T23:31:45.666Z,8.40
2023-03-20T23:34:15.675Z,8.40
2023-03-20T23:36:45.032Z,8.40
2023-03-20T23:39:15.317Z,8.30
2023-03-20T23:42:11.996Z,8.30
2023-03-20T23:44:33.512Z,8.30
2023-03-20T23:47:11.237Z,8.30
2023-03-20T23:49:45.888Z,8.30
2023-03-20T23:52:14.062Z,8.30
2023-03-20T23:54:42.604Z,8.30
2023-03-20T23:57:11.341Z,8.30
2023-03-20T23:59:40.884Z,8.30
